Photometre #541[Polarized_P] IASBS AOT

File : 20200923_541.hum

23/09/2020,03:20:04,TEMP=15.5,BA=5.12,STAT.A=Abs.,ExtBa=10.92
23/09/2020,03:23:16,TEMP=15.8,BA=5.12,STAT.A=Abs.,ExtBa=10.87
23/09/2020,03:27:00,TEMP=16.0,BA=5.12,STAT.A=Abs.,ExtBa=10.85
23/09/2020,03:31:27,TEMP=16.1,BA=5.32,STAT.A=Abs.,ExtBa=10.84
23/09/2020,03:36:48,TEMP=16.3,BA=5.32,STAT.A=Abs.,ExtBa=10.85
23/09/2020,03:43:23,TEMP=16.6,BA=5.36,STAT.A=Abs.,ExtBa=10.86
23/09/2020,03:51:42,TEMP=17.0,BA=5.36,STAT.B=Abs.,ExtBa=10.92
23/09/2020,03:58:53,TEMP=17.6,BA=5.36,STAT.A=Abs.,ExtBa=10.66
23/09/2020,04:00:41,TEMP=17.8,BA=5.12,STAT.A=Abs.,ExtBa=10.68
23/09/2020,04:05:08,TEMP=17.9,BA=5.12,STAT.A=Abs.,ExtBa=10.77
23/09/2020,04:10:49,TEMP=18.1,BA=5.40,STAT.A=Abs.,ExtBa=10.82
23/09/2020,04:17:19,TEMP=18.5,BA=5.40,STAT.C=Abs.,ExtBa=10.89
23/09/2020,04:30:46,TEMP=19.9,BA=5.08,STAT.A=Abs.,ExtBa=10.66
23/09/2020,04:33:44,TEMP=19.5,BA=5.08,STAT.A=Abs.,ExtBa=10.72
23/09/2020,04:44:19,TEMP=19.6,BA=5.40,STAT.A=Abs.,ExtBa=10.91
23/09/2020,04:57:14,TEMP=20.1,BA=5.40,STAT.A=Abs.,ExtBa=11.15
23/09/2020,05:13:26,TEMP=20.8,BA=5.40,STAT.B=Abs.,ExtBa=11.29
23/09/2020,05:23:41,TEMP=21.3,BA=5.32,STAT.D=Abs.,ExtBa=11.06
23/09/2020,05:38:42,TEMP=22.0,BA=5.36,STAT.F
23/09/2020,05:53:41,TEMP=23.2,BA=5.12,STAT.D=Abs.,ExtBa=10.97
23/09/2020,06:08:41,TEMP=23.0,BA=5.36,STAT.D=Abs.,ExtBa=11.12
23/09/2020,06:23:41,TEMP=23.5,BA=5.36,STAT.D=Abs.,ExtBa=11.25
23/09/2020,06:38:43,TEMP=24.3,BA=5.36,STAT.F
23/09/2020,06:53:41,TEMP=25.3,BA=5.16,STAT.D=Abs.,ExtBa=11.12
23/09/2020,07:08:41,TEMP=25.6,BA=5.32,STAT.D=Abs.,ExtBa=11.24
23/09/2020,07:23:41,TEMP=26.2,BA=5.36,STAT.D=Abs.,ExtBa=11.27
23/09/2020,07:38:43,TEMP=26.8,BA=5.36,STAT.F
23/09/2020,07:53:41,TEMP=27.1,BA=5.32,STAT.D=Abs.,ExtBa=11.27
23/09/2020,08:08:41,TEMP=27.0,BA=5.36,STAT.D=Abs.,ExtBa=11.35
23/09/2020,08:23:42,TEMP=27.4,BA=5.36,STAT.D=Abs.,ExtBa=11.35
23/09/2020,08:38:43,TEMP=28.0,BA=5.36,STAT.F
23/09/2020,08:53:41,TEMP=28.2,BA=5.32,STAT.D=Abs.,ExtBa=11.33
23/09/2020,09:08:41,TEMP=28.2,BA=5.36,STAT.D=Abs.,ExtBa=11.34
23/09/2020,09:23:41,TEMP=29.0,BA=5.36,STAT.D=Abs.,ExtBa=11.32
23/09/2020,09:38:43,TEMP=29.5,BA=5.36,STAT.F
23/09/2020,09:53:41,TEMP=30.0,BA=5.36,STAT.D=Abs.,ExtBa=11.36
23/09/2020,10:08:41,TEMP=30.8,BA=5.36,STAT.D=Abs.,ExtBa=11.38
23/09/2020,10:23:41,TEMP=31.6,BA=5.36,STAT.D=Abs.,ExtBa=11.36
23/09/2020,10:38:43,TEMP=31.8,BA=5.36,STAT.F
23/09/2020,10:53:40,TEMP=31.8,BA=5.20,STAT.D=Abs.,ExtBa=11.26
23/09/2020,11:08:41,TEMP=31.7,BA=5.32,STAT.D=Abs.,ExtBa=11.31
23/09/2020,11:23:41,TEMP=31.7,BA=5.36,STAT.D=Abs.,ExtBa=11.31
23/09/2020,11:38:42,TEMP=31.1,BA=5.36,STAT.F
23/09/2020,11:53:41,TEMP=31.8,BA=5.20,STAT.D=Abs.,ExtBa=11.22
23/09/2020,12:03:58,TEMP=30.9,BA=5.32,STAT.B=Abs.,ExtBa=11.27
23/09/2020,12:20:09,TEMP=30.0,BA=5.20,STAT.A=Abs.,ExtBa=11.22
23/09/2020,12:33:04,TEMP=29.6,BA=5.36,STAT.A=Abs.,ExtBa=11.24
23/09/2020,12:43:40,TEMP=28.7,BA=5.36,STAT.A=Abs.,ExtBa=11.24
23/09/2020,12:52:32,TEMP=27.9,BA=5.36,STAT.A=Abs.,ExtBa=11.21
23/09/2020,13:00:05,TEMP=27.3,BA=5.24,STAT.C=Abs.,ExtBa=11.22
23/09/2020,13:13:30,TEMP=27.6,BA=5.20,STAT.A=Abs.,ExtBa=11.05
23/09/2020,13:15:14,TEMP=27.1,BA=5.20,STAT.A=Abs.,ExtBa=11.04
23/09/2020,13:17:16,TEMP=26.8,BA=5.20,STAT.A=Abs.,ExtBa=11.03
23/09/2020,13:21:42,TEMP=26.4,BA=5.32,STAT.A=Abs.,ExtBa=11.03
23/09/2020,13:25:40,TEMP=26.1,BA=5.32,STAT.B=Abs.,ExtBa=11.03
23/09/2020,13:33:59,TEMP=25.5,BA=5.16,STAT.A=Abs.,ExtBa=10.93
23/09/2020,13:40:34,TEMP=25.1,BA=5.28,STAT.A=Abs.,ExtBa=10.96
23/09/2020,13:45:55,TEMP=24.8,BA=5.28,STAT.A=Abs.,ExtBa=10.95
23/09/2020,13:50:22,TEMP=24.6,BA=5.24,STAT.A=Abs.,ExtBa=10.93
23/09/2020,13:54:06,TEMP=24.5,BA=5.24,STAT.A=Abs.,ExtBa=10.93
23/09/2020,13:57:18,TEMP=24.6,BA=5.24,STAT.A=Abs.,ExtBa=10.90